createdAt,value
2018-04-30T00:00:32.365Z,1017.15
2018-04-30T00:01:32.360Z,1017.11
2018-04-30T00:02:32.357Z,1017.08
2018-04-30T00:03:32.351Z,1017.08
2018-04-30T00:04:32.350Z,1017.01
2018-04-30T00:05:32.341Z,1017
2018-04-30T00:06:32.337Z,1016.93
2018-04-30T00:07:32.332Z,1016.95
2018-04-30T00:08:32.328Z,1016.94
2018-04-30T00:09:32.323Z,1016.92
2018-04-30T00:10:32.320Z,1016.92
2018-04-30T00:11:32.314Z,1016.88
2018-04-30T00:12:32.337Z,1016.9
2018-04-30T00:13:32.304Z,1016.89
2018-04-30T00:14:32.303Z,1016.85
2018-04-30T00:15:32.296Z,1016.81
2018-04-30T00:16:32.290Z,1016.85
2018-04-30T00:17:32.286Z,1016.84
2018-04-30T00:18:32.283Z,1016.75
2018-04-30T00:19:32.281Z,1016.77
2018-04-30T00:20:32.272Z,1016.82
2018-04-30T00:21:32.270Z,1016.78
2018-04-30T00:22:32.264Z,1016.73
2018-04-30T00:23:32.262Z,1016.72
2018-04-30T00:24:32.254Z,1016.67
2018-04-30T00:25:32.250Z,1016.7
2018-04-30T00:26:32.247Z,1016.64
2018-04-30T00:27:32.240Z,1016.63
2018-04-30T00:28:32.236Z,1016.58
2018-04-30T00:29:32.237Z,1016.57
2018-04-30T00:30:32.233Z,1016.59
2018-04-30T00:31:32.222Z,1016.58
2018-04-30T00:32:32.218Z,1016.53
2018-04-30T00:33:32.292Z,1016.55
2018-04-30T00:34:32.213Z,1016.51
2018-04-30T00:35:32.203Z,1016.5
2018-04-30T00:36:32.199Z,1016.48
2018-04-30T00:37:32.195Z,1016.46
2018-04-30T00:38:32.189Z,1016.45
2018-04-30T00:39:32.184Z,1016.5
2018-04-30T00:40:32.181Z,1016.4
2018-04-30T00:41:32.180Z,1016.44
2018-04-30T00:42:32.170Z,1016.45
2018-04-30T00:43:32.168Z,1016.46
2018-04-30T00:44:32.161Z,1016.4
2018-04-30T00:45:32.159Z,1016.42
2018-04-30T00:46:32.152Z,1016.42
2018-04-30T00:47:32.148Z,1016.48
2018-04-30T00:48:32.143Z,1016.4
2018-04-30T00:49:32.137Z,1016.39
2018-04-30T00:50:32.133Z,1016.42
2018-04-30T00:51:32.129Z,1016.42
2018-04-30T00:52:32.124Z,1016.4
2018-04-30T00:53:32.122Z,1016.35
2018-04-30T00:54:32.119Z,1016.35
2018-04-30T00:55:32.110Z,1016.34
2018-04-30T00:56:32.105Z,1016.37
2018-04-30T00:57:32.100Z,1016.38
2018-04-30T00:58:32.096Z,1016.32
2018-04-30T00:59:32.093Z,1016.33
2018-04-30T01:00:32.087Z,1016.39
2018-04-30T01:01:32.082Z,1016.31
2018-04-30T01:02:32.077Z,1016.31
2018-04-30T01:03:32.085Z,1016.33
2018-04-30T01:04:32.068Z,1016.28
2018-04-30T01:05:32.063Z,1016.29
2018-04-30T01:06:32.059Z,1016.27
2018-04-30T01:07:32.057Z,1016.26
2018-04-30T01:08:32.049Z,1016.23
2018-04-30T01:09:32.049Z,1016.19
2018-04-30T01:10:32.040Z,1016.12
2018-04-30T01:11:32.036Z,1016.19
2018-04-30T01:12:32.031Z,1016.23
2018-04-30T01:13:32.025Z,1016.17
2018-04-30T01:14:32.021Z,1016.16
2018-04-30T01:15:32.016Z,1016.18
2018-04-30T01:16:32.012Z,1016.14
2018-04-30T01:17:32.008Z,1016.16
2018-04-30T01:18:32.001Z,1016.22
2018-04-30T01:19:31.997Z,1016.18
2018-04-30T01:20:31.993Z,1016.22
2018-04-30T01:21:31.988Z,1016.17
2018-04-30T01:22:31.982Z,1016.32
2018-04-30T01:23:31.978Z,1016.25
2018-04-30T01:24:31.973Z,1016.17
2018-04-30T01:25:31.969Z,1016.16
2018-04-30T01:26:31.966Z,1016.25
2018-04-30T01:27:31.963Z,1016.23
2018-04-30T01:28:31.957Z,1016.25
2018-04-30T01:29:31.949Z,1016.21
2018-04-30T01:30:31.945Z,1016.21
2018-04-30T01:31:31.939Z,1016.2
2018-04-30T01:32:31.935Z,1016.23
2018-04-30T01:33:31.929Z,1016.22
2018-04-30T01:34:31.924Z,1016.17
2018-04-30T01:35:31.921Z,1016.2
2018-04-30T01:36:31.916Z,1016.13
2018-04-30T01:37:31.910Z,1016.16
2018-04-30T01:38:31.911Z,1016.16
2018-04-30T01:39:31.901Z,1016.16
2018-04-30T01:40:31.895Z,1016.09
2018-04-30T01:41:31.897Z,1016.09
2018-04-30T01:42:31.888Z,1016.06
2018-04-30T01:43:31.885Z,1016.08
2018-04-30T01:44:31.876Z,1016.1
2018-04-30T01:45:31.871Z,1016.06
2018-04-30T01:46:31.866Z,1015.97
2018-04-30T01:47:31.861Z,1015.97
2018-04-30T01:48:31.856Z,1015.98
2018-04-30T01:49:31.851Z,1015.97
2018-04-30T01:50:31.851Z,1016
2018-04-30T01:51:31.840Z,1015.93
2018-04-30T01:52:31.836Z,1015.98
2018-04-30T01:53:31.832Z,1015.9
2018-04-30T01:54:31.827Z,1015.88
2018-04-30T01:55:31.829Z,1015.83
2018-04-30T01:56:31.819Z,1015.83
2018-04-30T01:57:31.811Z,1015.85
2018-04-30T01:58:31.810Z,1015.82
2018-04-30T01:59:31.801Z,1015.77
2018-04-30T02:00:31.797Z,1015.79
2018-04-30T02:01:31.793Z,1015.77
2018-04-30T02:02:31.786Z,1015.74
2018-04-30T02:03:31.787Z,1015.66
2018-04-30T02:04:31.777Z,1015.72
2018-04-30T02:05:31.772Z,1015.71
2018-04-30T02:06:31.766Z,1015.66
2018-04-30T02:07:31.761Z,1015.66
2018-04-30T02:08:31.755Z,1015.61
2018-04-30T02:09:31.751Z,1015.58
2018-04-30T02:10:31.752Z,1015.56
2018-04-30T02:11:31.741Z,1015.56
2018-04-30T02:12:31.737Z,1015.52
2018-04-30T02:13:31.737Z,1015.53
2018-04-30T02:14:31.725Z,1015.48
2018-04-30T02:15:31.721Z,1015.53
2018-04-30T02:16:31.715Z,1015.5
2018-04-30T02:17:31.709Z,1015.4
2018-04-30T02:18:31.705Z,1015.37
2018-04-30T02:19:31.699Z,1015.37
2018-04-30T02:20:31.694Z,1015.42
2018-04-30T02:21:31.689Z,1015.4
2018-04-30T02:22:31.684Z,1015.4
2018-04-30T02:23:31.680Z,1015.34
2018-04-30T02:24:31.673Z,1015.35
2018-04-30T02:25:31.669Z,1015.33
2018-04-30T02:26:31.664Z,1015.32
2018-04-30T02:27:31.658Z,1015.32
2018-04-30T02:28:31.652Z,1015.25
2018-04-30T02:29:31.648Z,1015.23
2018-04-30T02:30:31.643Z,1015.18
2018-04-30T02:31:31.637Z,1015.16
2018-04-30T02:32:31.633Z,1015.15
2018-04-30T02:33:31.663Z,1015.13
2018-04-30T02:34:31.623Z,1015.1
2018-04-30T02:35:31.617Z,1015.11
2018-04-30T02:36:31.613Z,1015.15
2018-04-30T02:37:31.606Z,1015.06
2018-04-30T02:38:31.601Z,1015.06
2018-04-30T02:39:31.596Z,1015.04
2018-04-30T02:40:31.592Z,1015.02
2018-04-30T02:41:31.591Z,1014.99
2018-04-30T02:42:31.580Z,1014.93
2018-04-30T02:43:31.574Z,1014.9
2018-04-30T02:44:31.570Z,1014.92
2018-04-30T02:45:31.573Z,1014.93
2018-04-30T02:46:31.559Z,1014.91
2018-04-30T02:47:31.553Z,1014.86
2018-04-30T02:48:31.549Z,1014.87
2018-04-30T02:49:31.543Z,1014.8
2018-04-30T02:50:31.538Z,1014.83
2018-04-30T02:51:31.534Z,1014.82
2018-04-30T02:52:31.527Z,1014.82
2018-04-30T02:53:31.521Z,1014.77
2018-04-30T02:54:31.516Z,1014.78
2018-04-30T02:55:31.512Z,1014.8
2018-04-30T02:56:31.507Z,1014.79
2018-04-30T02:57:31.500Z,1014.8
2018-04-30T02:58:31.495Z,1014.86
2018-04-30T02:59:31.490Z,1014.79
2018-04-30T03:00:31.485Z,1014.81
2018-04-30T03:01:31.479Z,1014.77
2018-04-30T03:02:31.488Z,1014.74
2018-04-30T03:03:31.468Z,1014.76
2018-04-30T03:04:31.461Z,1014.73
2018-04-30T03:05:31.458Z,1014.69
2018-04-30T03:06:31.455Z,1014.68
2018-04-30T03:07:31.453Z,1014.71
2018-04-30T03:08:31.441Z,1014.67
2018-04-30T03:09:31.438Z,1014.66
2018-04-30T03:10:31.430Z,1014.64
2018-04-30T03:11:31.429Z,1014.62
2018-04-30T03:12:31.419Z,1014.59
2018-04-30T03:13:31.414Z,1014.6
2018-04-30T03:14:31.409Z,1014.62
2018-04-30T03:15:31.402Z,1014.58
2018-04-30T03:16:31.397Z,1014.54
2018-04-30T03:17:31.394Z,1014.6
2018-04-30T03:18:31.387Z,1014.49
2018-04-30T03:19:31.380Z,1014.5
2018-04-30T03:20:31.376Z,1014.45
2018-04-30T03:21:31.371Z,1014.47
2018-04-30T03:22:31.365Z,1014.44
2018-04-30T03:23:31.359Z,1014.43
2018-04-30T03:24:31.360Z,1014.41
2018-04-30T03:25:31.348Z,1014.38
2018-04-30T03:26:31.342Z,1014.39
2018-04-30T03:27:31.337Z,1014.37
2018-04-30T03:28:31.332Z,1014.35
2018-04-30T03:29:31.327Z,1014.38
2018-04-30T03:30:31.321Z,1014.4
2018-04-30T03:31:31.316Z,1014.32
2018-04-30T03:32:31.309Z,1014.38
2018-04-30T03:33:31.305Z,1014.43
2018-04-30T03:34:31.299Z,1014.42
2018-04-30T03:35:31.293Z,1014.48
2018-04-30T03:36:31.289Z,1014.44
2018-04-30T03:37:31.281Z,1014.46
2018-04-30T03:38:31.279Z,1014.45
2018-04-30T03:39:31.271Z,1014.38
2018-04-30T03:40:31.266Z,1014.41
2018-04-30T03:41:31.260Z,1014.38
2018-04-30T03:42:31.254Z,1014.36
2018-04-30T03:43:31.249Z,1014.29
2018-04-30T03:44:31.243Z,1014.34
2018-04-30T03:45:31.238Z,1014.28
2018-04-30T03:46:31.234Z,1014.33
2018-04-30T03:47:31.226Z,1014.29
2018-04-30T03:48:31.220Z,1014.3
2018-04-30T03:49:31.215Z,1014.3
2018-04-30T03:50:31.209Z,1014.24
2018-04-30T03:51:31.205Z,1014.25
2018-04-30T03:52:31.198Z,1014.25
2018-04-30T03:53:31.192Z,1014.24
2018-04-30T03:54:31.186Z,1014.29
2018-04-30T03:55:31.181Z,1014.23
2018-04-30T03:56:31.175Z,1014.24
2018-04-30T03:57:31.169Z,1014.26
2018-04-30T03:58:31.166Z,1014.2
2018-04-30T03:59:31.158Z,1014.2
2018-04-30T04:00:31.165Z,1014.21
2018-04-30T04:01:31.160Z,1014.18
2018-04-30T04:02:31.157Z,1014.13
2018-04-30T04:03:31.137Z,1014.13
2018-04-30T04:04:31.131Z,1014.13
2018-04-30T04:05:31.125Z,1014.1
2018-04-30T04:06:31.122Z,1014.1
2018-04-30T04:07:31.113Z,1014.02
2018-04-30T04:08:31.109Z,1013.96
2018-04-30T04:09:31.103Z,1013.99
2018-04-30T04:10:31.097Z,1013.92
2018-04-30T04:11:31.091Z,1013.89
2018-04-30T04:12:31.086Z,1013.89
2018-04-30T04:13:31.082Z,1013.81
2018-04-30T04:14:31.075Z,1013.73
2018-04-30T04:15:31.071Z,1013.62
2018-04-30T04:16:31.064Z,1013.53
2018-04-30T04:17:31.060Z,1013.48
2018-04-30T04:18:31.057Z,1013.38
2018-04-30T04:19:31.049Z,1013.31
2018-04-30T04:20:31.049Z,1013.24
2018-04-30T04:21:31.038Z,1013.19
2018-04-30T04:22:31.033Z,1013.03
2018-04-30T04:23:31.028Z,1012.97
2018-04-30T04:24:31.024Z,1012.93
2018-04-30T04:25:31.017Z,1012.79
2018-04-30T04:26:31.015Z,1012.75
2018-04-30T04:27:31.008Z,1012.64
2018-04-30T04:28:31.004Z,1012.54
2018-04-30T04:29:30.997Z,1012.46
2018-04-30T04:30:30.994Z,1012.35
2018-04-30T04:31:30.990Z,1012.25
2018-04-30T04:32:30.992Z,1012.18
2018-04-30T04:33:30.980Z,1012.07
2018-04-30T04:34:30.975Z,1011.94
2018-04-30T04:35:30.971Z,1011.82
2018-04-30T04:36:30.966Z,1011.89
2018-04-30T04:37:30.963Z,1011.83
2018-04-30T04:38:30.959Z,1011.79
2018-04-30T04:39:30.954Z,1011.81
2018-04-30T04:40:30.955Z,1011.72
2018-04-30T04:41:30.947Z,1011.62
2018-04-30T04:42:30.944Z,1011.55
2018-04-30T04:43:30.939Z,1011.35
2018-04-30T04:44:30.935Z,1011.33
2018-04-30T04:45:30.933Z,1011.27
2018-04-30T04:46:30.929Z,1011.23
2018-04-30T04:47:30.994Z,1011.13
2018-04-30T04:48:30.922Z,1011.1
2018-04-30T04:49:30.920Z,1010.98
2018-04-30T04:50:30.915Z,1010.83
2018-04-30T04:51:30.913Z,1010.74
2018-04-30T04:52:30.913Z,1010.75
2018-04-30T04:53:30.908Z,1010.62
2018-04-30T04:54:30.905Z,1010.52
2018-04-30T04:55:30.902Z,1010.51
2018-04-30T04:56:30.900Z,1010.54
2018-04-30T04:57:30.898Z,1010.55
2018-04-30T04:58:30.895Z,1010.48
2018-04-30T04:59:30.894Z,1010.32
2018-04-30T05:00:30.891Z,1010.28
2018-04-30T05:01:30.888Z,1010.13
2018-04-30T05:02:30.889Z,1010.09
2018-04-30T05:03:30.885Z,1009.94
2018-04-30T05:04:30.941Z,1009.82
2018-04-30T05:05:30.883Z,1009.73
2018-04-30T05:06:30.883Z,1009.66
2018-04-30T05:07:30.878Z,1009.54
2018-04-30T05:08:30.877Z,1009.46
2018-04-30T05:09:30.876Z,1009.4
2018-04-30T05:10:30.875Z,1009.31
2018-04-30T05:11:30.875Z,1009.23
2018-04-30T05:12:30.873Z,1009.2
2018-04-30T05:13:30.878Z,1009.17
2018-04-30T05:14:30.873Z,1009.13
2018-04-30T05:15:30.871Z,1009.14
2018-04-30T05:16:30.870Z,1009.14
2018-04-30T05:17:30.870Z,1009.11
2018-04-30T05:18:30.869Z,1009.09
2018-04-30T05:19:30.871Z,1009.12
2018-04-30T05:20:30.869Z,1009.11
2018-04-30T05:21:30.870Z,1009.07
2018-04-30T05:22:30.870Z,1009.04
2018-04-30T05:23:30.869Z,1009.02
2018-04-30T05:24:30.869Z,1008.95
2018-04-30T05:25:30.880Z,1008.84
2018-04-30T05:26:30.871Z,1008.71
2018-04-30T05:27:30.871Z,1008.61
2018-04-30T05:28:30.874Z,1008.65
2018-04-30T05:29:30.873Z,1008.58
2018-04-30T05:30:30.873Z,1008.46
2018-04-30T05:31:30.874Z,1008.44
2018-04-30T05:32:30.878Z,1008.29
2018-04-30T05:33:30.880Z,1008.23
2018-04-30T05:34:30.877Z,1008.14
2018-04-30T05:35:30.881Z,1008.06
2018-04-30T05:36:30.880Z,1008.01
2018-04-30T05:37:30.882Z,1007.94
2018-04-30T05:38:30.883Z,1007.91
2018-04-30T05:39:30.889Z,1007.8
2018-04-30T05:40:30.888Z,1007.73
2018-04-30T05:41:30.890Z,1007.65
2018-04-30T05:42:30.892Z,1007.73
2018-04-30T05:43:30.895Z,1007.71
2018-04-30T05:44:30.897Z,1007.61
2018-04-30T05:45:30.900Z,1007.61
2018-04-30T05:46:30.902Z,1007.55
2018-04-30T05:47:30.907Z,1007.49
2018-04-30T05:48:30.910Z,1007.36
2018-04-30T05:49:30.912Z,1007.31
2018-04-30T05:50:30.919Z,1007.21
2018-04-30T05:51:30.929Z,1007.08
2018-04-30T05:52:30.922Z,1007.06
2018-04-30T05:53:30.926Z,1006.99
2018-04-30T05:54:30.930Z,1006.87
2018-04-30T05:55:30.941Z,1006.81
2018-04-30T05:56:30.941Z,1006.74
2018-04-30T05:57:30.943Z,1006.71
2018-04-30T05:58:30.947Z,1006.65
2018-04-30T05:59:30.952Z,1006.54
2018-04-30T06:00:31.014Z,1006.52
2018-04-30T06:01:30.961Z,1006.52
2018-04-30T06:02:30.971Z,1006.45
2018-04-30T06:03:30.969Z,1006.34
2018-04-30T06:04:30.975Z,1006.32
2018-04-30T06:05:30.980Z,1006.25
2018-04-30T06:06:30.986Z,1006.23
2018-04-30T06:07:30.990Z,1006.22
2018-04-30T06:08:30.996Z,1006.1
2018-04-30T06:09:31.011Z,1005.99
2018-04-30T06:10:31.007Z,1005.94
2018-04-30T06:11:31.013Z,1005.98
2018-04-30T06:12:31.022Z,1005.9
2018-04-30T06:13:31.031Z,1005.83
2018-04-30T06:14:31.030Z,1005.66
2018-04-30T06:15:31.037Z,1005.57
2018-04-30T06:16:31.043Z,1005.52
2018-04-30T06:17:31.057Z,1005.4
2018-04-30T06:18:31.058Z,1005.3
2018-04-30T06:19:31.067Z,1005.22
2018-04-30T06:20:31.070Z,1005.2
2018-04-30T06:21:31.077Z,1005.1
2018-04-30T06:22:31.083Z,1005.13
2018-04-30T06:23:31.091Z,1005.04
2018-04-30T06:24:31.098Z,1004.95
2018-04-30T06:25:31.107Z,1004.9
2018-04-30T06:26:31.136Z,1004.89
2018-04-30T06:27:31.130Z,1004.95
2018-04-30T06:28:31.146Z,1004.93
2018-04-30T06:29:31.139Z,1004.78
2018-04-30T06:30:31.146Z,1004.69
2018-04-30T06:31:31.155Z,1004.66
2018-04-30T06:32:31.166Z,1004.62
2018-04-30T06:33:31.175Z,1004.69
2018-04-30T06:34:31.181Z,1004.74
2018-04-30T06:35:31.188Z,1004.71
2018-04-30T06:36:31.205Z,1004.54
2018-04-30T06:37:31.207Z,1004.39
2018-04-30T06:38:31.216Z,1004.32
2018-04-30T06:39:31.231Z,1004.13
2018-04-30T06:40:31.240Z,1003.99
2018-04-30T06:41:31.242Z,1003.91
2018-04-30T06:42:31.252Z,1003.84
2018-04-30T06:43:31.261Z,1003.84
2018-04-30T06:44:31.272Z,1003.75
2018-04-30T06:45:31.284Z,1003.62
2018-04-30T06:46:31.290Z,1003.61
2018-04-30T06:47:31.351Z,1003.45
2018-04-30T06:48:31.309Z,1003.43
2018-04-30T06:49:31.329Z,1003.37
2018-04-30T06:50:31.328Z,1003.32
2018-04-30T06:51:31.338Z,1003.2
2018-04-30T06:52:31.351Z,1003.17
2018-04-30T06:53:31.436Z,1003.04
2018-04-30T06:54:31.369Z,1003.05
2018-04-30T06:55:31.380Z,1003.02
2018-04-30T06:56:31.390Z,1003.03
2018-04-30T06:57:31.400Z,1003.04
2018-04-30T06:58:31.410Z,1003
2018-04-30T06:59:31.422Z,1002.9
2018-04-30T07:00:31.433Z,1002.78
2018-04-30T07:01:31.444Z,1002.71
2018-04-30T07:02:31.454Z,1002.7
2018-04-30T07:03:31.466Z,1002.63
2018-04-30T07:04:31.478Z,1002.61
2018-04-30T07:05:31.488Z,1002.49
2018-04-30T07:06:31.499Z,1002.53
2018-04-30T07:07:31.511Z,1002.51
2018-04-30T07:08:31.523Z,1002.51
2018-04-30T07:09:31.674Z,1002.44
2018-04-30T07:10:31.546Z,1002.36
2018-04-30T07:11:31.557Z,1002.31
2018-04-30T07:12:31.570Z,1002.22
2018-04-30T07:13:31.581Z,1002.3
2018-04-30T07:14:31.593Z,1002.34
2018-04-30T07:15:31.609Z,1002.34
2018-04-30T07:16:31.626Z,1002.3
2018-04-30T07:17:31.629Z,1002.34
2018-04-30T07:18:31.641Z,1002.45
2018-04-30T07:19:31.654Z,1002.5
2018-04-30T07:20:31.665Z,1002.47
2018-04-30T07:21:31.678Z,1002.46
2018-04-30T07:22:31.690Z,1002.42
2018-04-30T07:23:31.708Z,1002.49
2018-04-30T07:24:31.715Z,1002.41
2018-04-30T07:25:31.727Z,1002.31
2018-04-30T07:26:31.742Z,1002.3
2018-04-30T07:27:31.771Z,1002.3
2018-04-30T07:28:31.767Z,1002.31
2018-04-30T07:29:31.779Z,1002.18
2018-04-30T07:30:31.800Z,1002.23
2018-04-30T07:31:31.813Z,1002.14
2018-04-30T07:32:31.816Z,1002.01
2018-04-30T07:33:31.830Z,1001.9
2018-04-30T07:34:31.843Z,1001.84
2018-04-30T07:35:31.857Z,1001.82
2018-04-30T07:36:31.870Z,1001.82
2018-04-30T07:37:31.883Z,1001.83
2018-04-30T07:38:31.897Z,1001.78
2018-04-30T07:39:31.910Z,1001.81
2018-04-30T07:40:31.924Z,1001.96
2018-04-30T07:41:31.943Z,1001.88
2018-04-30T07:42:32.009Z,1001.99
2018-04-30T07:43:31.966Z,1001.94
2018-04-30T07:44:31.980Z,1001.91
2018-04-30T07:45:31.994Z,1001.89
2018-04-30T07:46:32.008Z,1001.77
2018-04-30T07:47:32.023Z,1001.68
2018-04-30T07:48:32.037Z,1001.68
2018-04-30T07:49:32.051Z,1001.69
2018-04-30T07:50:32.066Z,1001.48
2018-04-30T07:51:32.080Z,1001.39
2018-04-30T07:52:32.095Z,1001.41
2018-04-30T07:53:32.112Z,1001.41
2018-04-30T07:54:32.166Z,1001.29
2018-04-30T07:55:32.140Z,1001.21
2018-04-30T07:56:32.154Z,1001.22
2018-04-30T07:57:32.169Z,1001.09
2018-04-30T07:58:32.184Z,1000.89
2018-04-30T07:59:32.199Z,1000.71
2018-04-30T08:00:32.212Z,1000.64
2018-04-30T08:01:32.227Z,1000.58
2018-04-30T08:02:32.246Z,1000.57
2018-04-30T08:03:32.258Z,1000.54
2018-04-30T08:04:32.273Z,1000.66
2018-04-30T08:05:32.288Z,1000.88
2018-04-30T08:06:32.304Z,1000.91
2018-04-30T08:07:32.321Z,1000.86
2018-04-30T08:08:32.334Z,1000.94
2018-04-30T08:09:32.358Z,1001.09
2018-04-30T08:10:32.365Z,1001.36
2018-04-30T08:11:32.380Z,1001.63
2018-04-30T08:12:32.394Z,1001.7
2018-04-30T08:13:32.410Z,1001.68
2018-04-30T08:14:32.429Z,1001.78
2018-04-30T08:15:32.439Z,1001.85
2018-04-30T08:16:32.454Z,1001.93
2018-04-30T08:17:32.469Z,1002.04
2018-04-30T08:18:32.489Z,1002.05
2018-04-30T08:19:32.510Z,1002.05
2018-04-30T08:20:32.513Z,1002.04
2018-04-30T08:21:32.588Z,1002.03
2018-04-30T08:22:32.541Z,1002.1
2018-04-30T08:23:32.555Z,1002.22
2018-04-30T08:24:32.572Z,1002.23
2018-04-30T08:25:32.587Z,1002.12
2018-04-30T08:26:32.598Z,1002.06
2018-04-30T08:27:32.614Z,1002.01
2018-04-30T08:28:32.625Z,1001.98
2018-04-30T08:29:32.638Z,1001.87
2018-04-30T08:30:32.653Z,1001.87
2018-04-30T08:31:32.671Z,1001.98
2018-04-30T08:32:32.685Z,1002.31
2018-04-30T08:33:32.709Z,1002.77
2018-04-30T08:34:32.711Z,1003.36
2018-04-30T08:35:32.738Z,1003.97
2018-04-30T08:36:32.776Z,1004.36
2018-04-30T08:37:32.747Z,1004.79
2018-04-30T08:38:32.759Z,1005.11
2018-04-30T08:39:32.775Z,1005.37
2018-04-30T08:40:32.785Z,1005.6
2018-04-30T08:41:32.795Z,1005.76
2018-04-30T08:42:32.808Z,1005.97
2018-04-30T08:43:32.818Z,1006.13
2018-04-30T08:44:32.829Z,1006.24
2018-04-30T08:45:32.842Z,1006.34
2018-04-30T08:46:32.851Z,1006.45
2018-04-30T08:47:32.862Z,1006.61
2018-04-30T08:48:32.870Z,1006.69
2018-04-30T08:49:32.880Z,1006.68
2018-04-30T08:50:32.892Z,1006.82
2018-04-30T08:51:32.911Z,1006.95
2018-04-30T08:52:32.908Z,1007.1
2018-04-30T08:53:32.926Z,1007.21
2018-04-30T08:54:32.929Z,1007.33
2018-04-30T08:55:32.933Z,1007.41
2018-04-30T08:56:32.946Z,1007.47
2018-04-30T08:57:32.957Z,1007.55
2018-04-30T08:58:32.959Z,1007.6
2018-04-30T08:59:32.972Z,1007.65
2018-04-30T09:00:32.997Z,1007.64
2018-04-30T09:01:32.981Z,1007.69
2018-04-30T09:02:32.987Z,1007.72
2018-04-30T09:03:32.994Z,1007.76
2018-04-30T09:04:33.001Z,1007.87
2018-04-30T09:05:33.009Z,1007.95
2018-04-30T09:06:33.015Z,1008.02
2018-04-30T09:07:33.021Z,1008.03
2018-04-30T09:08:33.028Z,1008.14
2018-04-30T09:09:33.038Z,1008.12
2018-04-30T09:10:33.041Z,1008.23
2018-04-30T09:11:33.047Z,1008.22
2018-04-30T09:12:33.053Z,1008.27
2018-04-30T09:13:33.058Z,1008.26
2018-04-30T09:14:33.071Z,1008.24
2018-04-30T09:15:33.070Z,1008.37
2018-04-30T09:16:33.078Z,1008.42
2018-04-30T09:17:33.080Z,1008.38
2018-04-30T09:18:33.086Z,1008.47
2018-04-30T09:19:33.092Z,1008.49
2018-04-30T09:20:33.097Z,1008.52
2018-04-30T09:21:33.102Z,1008.51
2018-04-30T09:22:33.108Z,1008.43
2018-04-30T09:23:33.113Z,1008.38
2018-04-30T09:24:33.121Z,1008.22
2018-04-30T09:25:33.123Z,1008.13
2018-04-30T09:26:33.130Z,1008.06
2018-04-30T09:27:33.135Z,1007.98
2018-04-30T09:28:33.139Z,1008.04
2018-04-30T09:29:33.143Z,1008.03
2018-04-30T09:30:33.149Z,1008.06
2018-04-30T09:31:33.156Z,1008.19
2018-04-30T09:32:33.159Z,1008.22
2018-04-30T09:33:33.163Z,1008.37
2018-04-30T09:34:33.176Z,1008.42
2018-04-30T09:35:33.173Z,1008.42
2018-04-30T09:36:33.179Z,1008.54
2018-04-30T09:37:33.184Z,1008.48
2018-04-30T09:38:33.189Z,1008.54
2018-04-30T09:39:33.193Z,1008.51
2018-04-30T09:40:33.198Z,1008.57
2018-04-30T09:41:33.204Z,1008.62
2018-04-30T09:42:33.208Z,1008.59
2018-04-30T09:43:33.213Z,1008.64
2018-04-30T09:44:33.217Z,1008.59
2018-04-30T09:45:33.225Z,1008.67
2018-04-30T09:46:33.229Z,1008.76
2018-04-30T09:47:33.233Z,1008.75
2018-04-30T09:48:33.243Z,1008.85
2018-04-30T09:49:33.242Z,1008.74
2018-04-30T09:50:33.247Z,1008.68
2018-04-30T09:51:33.252Z,1008.54
2018-04-30T09:52:33.258Z,1008.55
2018-04-30T09:53:33.263Z,1008.59
2018-04-30T09:54:33.268Z,1008.59
2018-04-30T09:55:33.272Z,1008.47
2018-04-30T09:56:33.277Z,1008.55
2018-04-30T09:57:33.282Z,1008.5
2018-04-30T09:58:33.288Z,1008.48
2018-04-30T09:59:33.293Z,1008.43
2018-04-30T10:00:33.299Z,1008.44
2018-04-30T10:01:33.302Z,1008.48
2018-04-30T10:02:33.307Z,1008.59
2018-04-30T10:03:33.313Z,1008.69
2018-04-30T10:04:33.318Z,1008.72
2018-04-30T10:05:33.326Z,1008.81
2018-04-30T10:06:33.336Z,1009.01
2018-04-30T10:07:33.335Z,1009.09
2018-04-30T10:08:33.341Z,1009.19
2018-04-30T10:09:33.355Z,1009.26
2018-04-30T10:10:33.351Z,1009.24
2018-04-30T10:11:33.357Z,1009.45
2018-04-30T10:12:33.361Z,1009.51
2018-04-30T10:13:33.367Z,1009.57
2018-04-30T10:14:33.372Z,1009.68
2018-04-30T10:15:33.377Z,1009.75
2018-04-30T10:16:33.382Z,1009.8
2018-04-30T10:17:33.389Z,1009.77
2018-04-30T10:18:33.392Z,1009.96
2018-04-30T10:19:33.398Z,1009.91
2018-04-30T10:20:33.402Z,1009.99
2018-04-30T10:21:33.407Z,1010.17
2018-04-30T10:22:33.412Z,1010.14
2018-04-30T10:23:33.542Z,1010.17
2018-04-30T10:24:33.422Z,1010.23
2018-04-30T10:25:33.426Z,1010.27
2018-04-30T10:26:33.431Z,1010.46
2018-04-30T10:27:33.442Z,1010.35
2018-04-30T10:28:33.522Z,1010.45
2018-04-30T10:29:33.444Z,1010.3
2018-04-30T10:30:33.449Z,1010.41
2018-04-30T10:31:33.471Z,1010.44
2018-04-30T10:32:33.461Z,1010.6
2018-04-30T10:33:33.462Z,1010.57
2018-04-30T10:34:33.465Z,1010.57
2018-04-30T10:35:33.470Z,1010.85
2018-04-30T10:36:33.475Z,1010.68
2018-04-30T10:37:33.479Z,1010.62
2018-04-30T10:38:33.483Z,1010.77
2018-04-30T10:39:33.488Z,1010.73
2018-04-30T10:40:33.495Z,1010.81
2018-04-30T10:41:33.494Z,1010.82
2018-04-30T10:42:33.498Z,1010.79
2018-04-30T10:43:33.503Z,1010.86
2018-04-30T10:44:33.511Z,1010.9
2018-04-30T10:45:33.511Z,1010.99
2018-04-30T10:46:33.514Z,1010.93
2018-04-30T10:47:33.519Z,1010.94
2018-04-30T10:48:33.523Z,1010.99
2018-04-30T10:49:33.526Z,1011.03
2018-04-30T10:50:33.530Z,1011.16
2018-04-30T10:51:33.582Z,1011.18
2018-04-30T10:52:33.544Z,1011.37
2018-04-30T10:53:33.545Z,1011.55
2018-04-30T10:54:33.544Z,1011.61
2018-04-30T10:55:33.549Z,1011.73
2018-04-30T10:56:33.551Z,1011.63
2018-04-30T10:57:33.559Z,1011.51
2018-04-30T10:58:33.558Z,1011.52
2018-04-30T10:59:33.570Z,1011.4
2018-04-30T11:00:33.565Z,1011.24
2018-04-30T11:01:33.567Z,1011.32
2018-04-30T11:02:33.651Z,1011.37
2018-04-30T11:03:33.585Z,1011.16
2018-04-30T11:04:33.582Z,1011.01
2018-04-30T11:05:33.580Z,1010.89
2018-04-30T11:06:33.586Z,1010.89
2018-04-30T11:07:33.587Z,1010.91
2018-04-30T11:08:33.591Z,1010.83
2018-04-30T11:09:33.594Z,1010.84
2018-04-30T11:10:33.598Z,1010.73
2018-04-30T11:11:33.617Z,1010.92
2018-04-30T11:12:33.610Z,1011.09
2018-04-30T11:13:33.610Z,1011.06
2018-04-30T11:14:33.612Z,1011.16
2018-04-30T11:15:33.616Z,1011.15
2018-04-30T11:16:33.620Z,1011.25
2018-04-30T11:17:33.626Z,1011.26
2018-04-30T11:18:33.628Z,1011.32
2018-04-30T11:19:33.632Z,1011.34
2018-04-30T11:20:33.638Z,1011.31
2018-04-30T11:21:33.640Z,1011.27
2018-04-30T11:22:33.643Z,1011.16
2018-04-30T11:23:33.647Z,1011.11
2018-04-30T11:24:33.652Z,1011.07
2018-04-30T11:25:33.655Z,1011.14
2018-04-30T11:26:33.662Z,1011.08
2018-04-30T11:27:33.726Z,1011.08
2018-04-30T11:28:33.667Z,1011.01
2018-04-30T11:29:33.671Z,1011.04
2018-04-30T11:30:33.680Z,1010.94
2018-04-30T11:31:33.679Z,1011.02
2018-04-30T11:32:33.683Z,1010.89
2018-04-30T11:33:33.690Z,1010.85
2018-04-30T11:34:33.693Z,1010.91
2018-04-30T11:35:33.696Z,1010.79
2018-04-30T11:36:33.709Z,1010.75
2018-04-30T11:37:33.705Z,1010.77
2018-04-30T11:38:33.709Z,1010.85
2018-04-30T11:39:33.713Z,1010.84
2018-04-30T11:40:33.717Z,1010.9
2018-04-30T11:41:33.722Z,1010.95
2018-04-30T11:42:33.727Z,1010.94
2018-04-30T11:43:33.731Z,1011.13
2018-04-30T11:44:33.736Z,1011.11
2018-04-30T11:45:33.741Z,1011.27
2018-04-30T11:46:33.749Z,1011.42
2018-04-30T11:47:33.749Z,1011.35
2018-04-30T11:48:33.754Z,1011.45
2018-04-30T11:49:33.762Z,1011.5
2018-04-30T11:50:33.762Z,1011.55
2018-04-30T11:51:33.768Z,1011.69
2018-04-30T11:52:33.772Z,1011.73
2018-04-30T11:53:33.777Z,1011.78
2018-04-30T11:54:33.780Z,1011.7
2018-04-30T11:55:33.785Z,1011.7
2018-04-30T11:56:33.791Z,1011.63
2018-04-30T11:57:33.794Z,1011.82
2018-04-30T11:58:33.799Z,1011.81
2018-04-30T11:59:33.804Z,1011.86
2018-04-30T12:00:33.806Z,1011.88
2018-04-30T12:01:33.810Z,1011.95
2018-04-30T12:02:33.902Z,1012.13
2018-04-30T12:03:33.820Z,1012.14
2018-04-30T12:04:33.823Z,1012.19
2018-04-30T12:05:33.826Z,1012.28
2018-04-30T12:06:33.845Z,1012.35
2018-04-30T12:07:33.838Z,1012.42
2018-04-30T12:08:33.839Z,1012.46